Time;durP1;ratioP1;P1;durP2;ratioP2;P2;SDS_P1;SDS_P2;PMS_P1;PMS_P2;Temp;Humidity;BMP_temperature;BMP_pressure;BME280_temperature;BME280_humidity;BME280_pressure;Samples;Min_cycle;Max_cycle;Signal;HPM_P1;HPM_P2
2020/12/11 00:01:48;;;;;;;36.03;17.88;;;0.00;89.50;;;;;;4994454;28;20451;-85
2020/12/11 00:04:13;;;;;;;36.28;17.45;;;0.00;89.30;;;;;;5011138;28;20384;-85
2020/12/11 00:06:39;;;;;;;37.92;18.38;;;0.00;89.40;;;;;;4993781;28;20397;-85
2020/12/11 00:09:04;;;;;;;35.22;17.85;;;0.00;89.50;;;;;;5010999;28;20431;-84
2020/12/11 00:11:30;;;;;;;37.38;18.25;;;0.00;89.20;;;;;;5010340;28;20389;-85
2020/12/11 00:13:56;;;;;;;33.25;17.27;;;0.10;89.00;;;;;;4994309;28;20881;-87
2020/12/11 00:16:22;;;;;;;35.65;18.13;;;0.10;89.10;;;;;;5010670;28;20384;-84
2020/12/11 00:18:47;;;;;;;35.88;17.90;;;0.10;89.40;;;;;;4992796;28;20384;-85
2020/12/11 00:21:13;;;;;;;37.58;17.50;;;0.10;89.40;;;;;;5010804;28;20601;-84
2020/12/11 00:23:38;;;;;;;38.13;18.70;;;0.10;89.50;;;;;;4993868;28;20404;-86
2020/12/11 00:26:04;;;;;;;34.83;17.47;;;0.10;89.40;;;;;;5010359;28;20929;-84
2020/12/11 00:28:30;;;;;;;34.13;17.43;;;0.10;89.20;;;;;;5009656;28;20444;-83
2020/12/11 00:30:56;;;;;;;38.53;17.80;;;0.20;89.20;;;;;;4994074;28;20477;-85
2020/12/11 00:33:24;;;;;;;36.92;19.23;;;0.10;89.40;;;;;;4993568;28;20508;-85
2020/12/11 00:35:50;;;;;;;36.70;17.13;;;0.10;89.60;;;;;;5010287;28;20390;-83
2020/12/11 00:38:17;;;;;;;35.83;18.30;;;0.20;89.20;;;;;;4993537;28;20395;-84
2020/12/11 00:40:42;;;;;;;37.97;18.20;;;0.20;89.40;;;;;;4993742;28;20407;-85
2020/12/11 00:43:08;;;;;;;38.43;19.43;;;0.30;89.40;;;;;;5010007;28;20861;-86
2020/12/11 00:45:33;;;;;;;32.07;16.60;;;0.20;89.40;;;;;;4993796;28;20715;-85
2020/12/11 00:47:59;;;;;;;34.45;17.88;;;0.20;89.30;;;;;;5009752;28;20952;-84
2020/12/11 00:50:24;;;;;;;38.75;18.27;;;0.30;89.50;;;;;;4993276;28;20388;-85
2020/12/11 00:52:50;;;;;;;34.20;16.75;;;0.20;89.60;;;;;;5009718;28;20519;-84
2020/12/11 00:55:21;;;;;;;39.63;19.23;;;0.30;89.50;;;;;;4993090;28;20393;-85
2020/12/11 00:57:49;;;;;;;35.70;18.40;;;0.30;89.50;;;;;;4992960;28;20392;-83
2020/12/11 01:00:15;;;;;;;37.65;17.20;;;0.30;89.40;;;;;;4993239;28;20389;-83
2020/12/11 01:02:41;;;;;;;37.08;17.02;;;0.40;89.50;;;;;;4993564;28;20408;-84
2020/12/11 01:05:06;;;;;;;34.42;17.17;;;0.30;89.30;;;;;;4993243;28;20389;-84
2020/12/11 01:07:32;;;;;;;36.58;18.52;;;0.40;89.40;;;;;;5009079;28;20423;-85
2020/12/11 01:09:57;;;;;;;32.53;17.30;;;0.40;89.40;;;;;;5009616;28;20402;-84
2020/12/11 01:12:23;;;;;;;35.30;18.20;;;0.40;89.30;;;;;;4993213;28;20404;-81
2020/12/11 01:14:49;;;;;;;36.90;18.37;;;0.40;89.40;;;;;;5009778;28;20391;-83
2020/12/11 01:17:15;;;;;;;31.75;17.20;;;0.40;89.30;;;;;;4992394;28;20457;-83
2020/12/11 01:19:40;;;;;;;33.65;17.50;;;0.40;89.40;;;;;;5009730;28;20388;-85
2020/12/11 01:22:06;;;;;;;38.47;18.67;;;0.40;89.20;;;;;;5010603;28;20474;-82
2020/12/11 01:24:31;;;;;;;33.97;18.50;;;0.50;89.30;;;;;;4993156;28;20451;-83
2020/12/11 01:26:57;;;;;;;39.33;18.37;;;0.40;89.30;;;;;;4992544;28;20466;-81
2020/12/11 01:29:23;;;;;;;34.30;16.77;;;0.50;89.50;;;;;;5011496;28;20413;-83
2020/12/11 01:31:48;;;;;;;35.90;18.55;;;0.50;89.00;;;;;;5013288;28;20459;-83
2020/12/11 01:34:14;;;;;;;35.80;18.63;;;0.50;89.10;;;;;;4997355;28;20393;-83
2020/12/11 01:36:40;;;;;;;37.70;19.03;;;0.50;89.30;;;;;;5013139;28;20400;-82
2020/12/11 01:39:05;;;;;;;37.30;18.67;;;0.60;89.40;;;;;;5015016;28;20388;-82
2020/12/11 01:41:31;;;;;;;32.60;16.70;;;0.50;89.00;;;;;;5013296;28;20416;-82
2020/12/11 01:44:07;;;;;;;32.90;18.48;;;0.60;89.00;;;;;;4996973;28;20692;-84
2020/12/11 01:46:38;;;;;;;36.72;18.90;;;0.60;89.30;;;;;;5013541;28;20842;-82
2020/12/11 01:49:04;;;;;;;37.30;18.57;;;0.50;89.40;;;;;;5013371;28;20395;-82
2020/12/11 01:51:29;;;;;;;37.35;18.85;;;0.60;89.50;;;;;;4996965;28;20393;-82
2020/12/11 01:53:55;;;;;;;40.53;19.02;;;0.60;89.00;;;;;;5012003;28;20404;-83
2020/12/11 01:56:20;;;;;;;32.50;17.67;;;0.70;89.10;;;;;;5012201;28;20392;-84
2020/12/11 01:58:46;;;;;;;42.80;20.47;;;0.60;89.10;;;;;;4995154;28;20380;-81
2020/12/11 02:01:14;;;;;;;37.85;19.42;;;0.70;89.20;;;;;;4995643;28;20758;-82
2020/12/11 02:03:40;;;;;;;37.28;18.45;;;0.60;89.10;;;;;;4995216;28;20396;-81
2020/12/11 02:06:05;;;;;;;37.60;19.00;;;0.70;89.10;;;;;;4995447;28;20447;-82
2020/12/11 02:08:31;;;;;;;39.13;19.63;;;0.70;89.00;;;;;;5011037;28;20381;-83
2020/12/11 02:10:56;;;;;;;38.27;18.40;;;0.80;89.00;;;;;;5011244;28;20475;-82
2020/12/11 02:13:22;;;;;;;36.80;19.43;;;0.70;89.00;;;;;;5011578;28;20416;-83
2020/12/11 02:15:47;;;;;;;35.97;17.97;;;0.70;88.90;;;;;;4994952;28;20384;-83
2020/12/11 02:18:13;;;;;;;37.87;19.97;;;0.70;88.70;;;;;;5011255;28;20746;-81
2020/12/11 02:20:38;;;;;;;39.67;20.85;;;0.70;89.10;;;;;;5011345;28;20730;-83
2020/12/11 02:23:04;;;;;;;41.05;20.10;;;0.70;89.10;;;;;;5012641;28;20388;-82
2020/12/11 02:25:29;;;;;;;37.08;19.27;;;0.70;89.10;;;;;;4994734;28;20401;-83
2020/12/11 02:27:55;;;;;;;35.72;18.95;;;0.70;89.10;;;;;;4994526;28;20404;-82
2020/12/11 02:30:21;;;;;;;35.00;18.73;;;0.70;89.10;;;;;;5011280;28;20742;-82
2020/12/11 02:32:46;;;;;;;33.75;18.35;;;0.80;88.90;;;;;;4994789;28;20910;-82
2020/12/11 02:35:12;;;;;;;37.90;19.83;;;0.80;88.70;;;;;;5011008;28;20878;-84
2020/12/11 02:37:37;;;;;;;36.90;18.80;;;0.80;89.10;;;;;;5010916;28;20381;-83
2020/12/11 02:40:07;;;;;;;36.70;20.00;;;0.80;88.90;;;;;;4994329;28;20476;-83
2020/12/11 02:42:33;;;;;;;37.25;19.65;;;0.80;88.90;;;;;;5010524;28;20512;-83
2020/12/11 02:44:58;;;;;;;37.80;19.08;;;0.80;89.10;;;;;;4994676;28;20476;-82
2020/12/11 02:47:25;;;;;;;38.70;20.40;;;0.70;89.10;;;;;;5010345;28;20850;-81
2020/12/11 02:49:50;;;;;;;39.25;20.25;;;0.80;89.10;;;;;;5011104;28;20695;-83
2020/12/11 02:52:16;;;;;;;36.17;19.27;;;0.80;89.10;;;;;;4949742;28;1278190;-82
2020/12/11 02:54:41;;;;;;;33.87;19.30;;;0.80;89.00;;;;;;4994400;28;20404;-82
2020/12/11 02:57:07;;;;;;;40.00;19.07;;;0.70;88.90;;;;;;5011083;28;20389;-84
2020/12/11 02:59:33;;;;;;;36.50;19.10;;;0.70;89.30;;;;;;5013235;28;20393;-84
2020/12/11 03:01:58;;;;;;;35.27;18.67;;;0.80;88.90;;;;;;5011566;28;20407;-82
2020/12/11 03:04:24;;;;;;;37.77;17.73;;;0.80;88.80;;;;;;5011853;28;20413;-82
2020/12/11 03:06:49;;;;;;;36.10;19.70;;;0.70;88.70;;;;;;4994546;28;20445;-82
2020/12/11 03:09:15;;;;;;;36.67;19.03;;;0.70;89.10;;;;;;5011328;28;20439;-83
2020/12/11 03:11:40;;;;;;;36.97;18.70;;;0.70;89.10;;;;;;5011642;28;20596;-82
2020/12/11 03:14:06;;;;;;;34.07;18.53;;;0.70;89.00;;;;;;4995047;28;20397;-82
2020/12/11 03:16:31;;;;;;;33.50;18.67;;;0.70;88.70;;;;;;4994950;28;20377;-82
2020/12/11 03:18:57;;;;;;;33.72;18.27;;;0.70;88.60;;;;;;4994656;28;20397;-81
2020/12/11 03:21:22;;;;;;;36.97;18.60;;;0.70;88.70;;;;;;5011585;28;20387;-80
2020/12/11 03:23:48;;;;;;;33.88;17.65;;;0.70;88.50;;;;;;5010942;28;20397;-82
2020/12/11 03:26:13;;;;;;;34.13;18.17;;;0.70;88.50;;;;;;5011253;28;20457;-82
2020/12/11 03:28:39;;;;;;;35.45;18.80;;;0.70;88.70;;;;;;5010586;28;20439;-82
2020/12/11 03:31:04;;;;;;;32.40;16.80;;;0.70;88.80;;;;;;5011322;28;20393;-81
2020/12/11 03:33:30;;;;;;;30.30;16.85;;;0.80;88.30;;;;;;5011015;28;20829;-84
2020/12/11 03:35:55;;;;;;;33.30;18.50;;;0.70;88.60;;;;;;5010952;28;20389;-82
2020/12/11 03:38:21;;;;;;;32.30;17.33;;;0.60;88.90;;;;;;5010473;28;20388;-82
2020/12/11 03:40:47;;;;;;;39.13;17.43;;;0.70;88.60;;;;;;5010877;28;20489;-82
2020/12/11 03:43:12;;;;;;;29.60;15.40;;;0.70;88.70;;;;;;5011082;28;20869;-82
2020/12/11 03:45:38;;;;;;;29.77;16.20;;;0.70;88.50;;;;;;4994563;28;20389;-83
2020/12/11 03:48:03;;;;;;;31.80;16.33;;;0.70;88.30;;;;;;5010551;28;20385;-82
2020/12/11 03:50:29;;;;;;;32.03;16.77;;;0.70;88.60;;;;;;5010791;28;20385;-82
2020/12/11 03:52:55;;;;;;;32.08;17.58;;;0.70;88.60;;;;;;5009695;28;20425;-82
2020/12/11 03:55:20;;;;;;;30.83;17.02;;;0.60;88.90;;;;;;5010572;28;20869;-82
2020/12/11 03:57:46;;;;;;;29.45;15.93;;;0.40;89.00;;;;;;4993957;28;20393;-83
2020/12/11 04:00:11;;;;;;;30.50;16.35;;;0.60;88.60;;;;;;4994190;28;20527;-82
2020/12/11 04:02:37;;;;;;;31.77;16.27;;;0.60;88.40;;;;;;5010783;28;20381;-82
2020/12/11 04:05:03;;;;;;;26.00;15.13;;;0.60;88.50;;;;;;4994092;28;20400;-81
2020/12/11 04:07:29;;;;;;;32.53;16.65;;;0.50;88.80;;;;;;4993781;28;20900;-83
2020/12/11 04:09:54;;;;;;;28.70;15.03;;;0.50;88.80;;;;;;4993660;28;20388;-83
2020/12/11 04:12:20;;;;;;;28.93;14.70;;;0.60;88.60;;;;;;5010267;28;20929;-82
2020/12/11 04:14:45;;;;;;;26.53;14.67;;;0.70;88.50;;;;;;5010712;28;20400;-82
2020/12/11 04:17:11;;;;;;;26.87;15.43;;;0.70;88.00;;;;;;5011194;28;20389;-82
2020/12/11 04:19:36;;;;;;;26.80;14.57;;;0.70;88.00;;;;;;5010690;28;20443;-83
2020/12/11 04:22:02;;;;;;;25.67;13.87;;;0.80;87.80;;;;;;5010329;28;20381;-82
2020/12/11 04:24:28;;;;;;;22.15;12.90;;;0.80;87.50;;;;;;5010566;28;20683;-83
2020/12/11 04:26:53;;;;;;;20.30;12.20;;;0.90;87.10;;;;;;5009864;28;20384;-82
2020/12/11 04:29:19;;;;;;;23.87;13.07;;;0.90;87.20;;;;;;5011583;28;20392;-84
2020/12/11 04:31:55;;;;;;;22.60;12.90;;;0.90;87.40;;;;;;5009716;28;20392;-83
2020/12/11 04:34:20;;;;;;;22.27;12.55;;;0.90;87.20;;;;;;4993979;28;20408;-84
2020/12/11 04:36:49;;;;;;;23.73;13.03;;;0.90;86.90;;;;;;4993410;28;20909;-84
2020/12/11 04:39:15;;;;;;;21.40;12.40;;;0.90;86.80;;;;;;5010265;28;20408;-85
2020/12/11 04:41:40;;;;;;;22.88;12.70;;;1.00;86.90;;;;;;5011310;28;20874;-83
2020/12/11 04:44:06;;;;;;;21.23;12.80;;;1.00;86.70;;;;;;4993307;28;20451;-82
2020/12/11 04:46:31;;;;;;;23.17;12.97;;;1.00;86.80;;;;;;4993661;28;20385;-83
2020/12/11 04:48:57;;;;;;;21.93;12.77;;;0.90;86.80;;;;;;5009711;28;20442;-82
2020/12/11 04:51:31;;;;;;;22.75;12.15;;;1.00;87.00;;;;;;5010661;28;20436;-81
2020/12/11 04:53:57;;;;;;;21.65;12.00;;;1.00;86.50;;;;;;4993101;28;20432;-83
2020/12/11 04:56:23;;;;;;;21.27;12.05;;;1.10;86.40;;;;;;4993529;28;20450;-83
2020/12/11 04:58:50;;;;;;;24.15;12.32;;;1.10;86.20;;;;;;4993022;28;20479;-82
2020/12/11 05:01:25;;;;;;;22.52;12.57;;;1.10;86.60;;;;;;5010266;28;20385;-85
2020/12/11 05:03:51;;;;;;;20.83;11.57;;;1.00;86.60;;;;;;4993257;28;20400;-82
2020/12/11 05:06:16;;;;;;;22.87;13.17;;;1.10;86.30;;;;;;5009308;28;20738;-82
2020/12/11 05:08:42;;;;;;;26.20;12.70;;;1.10;86.40;;;;;;5009985;28;20389;-85
2020/12/11 05:11:07;;;;;;;22.17;12.63;;;1.10;86.40;;;;;;4993667;28;20479;-82
2020/12/11 05:13:33;;;;;;;21.47;12.20;;;1.10;86.50;;;;;;5010276;28;20455;-81
2020/12/11 05:16:11;;;;;;;20.57;13.03;;;1.10;86.40;;;;;;4993722;28;20451;-82
2020/12/11 05:18:36;;;;;;;23.88;12.98;;;1.10;86.10;;;;;;5009481;28;20380;-84
2020/12/11 05:21:22;;;;;;;20.63;11.97;;;1.10;86.10;;;;;;5009899;28;20850;-82
2020/12/11 05:24:04;;;;;;;21.58;12.13;;;1.10;86.20;;;;;;4993627;28;20400;-83
2020/12/11 05:26:31;;;;;;;19.45;11.70;;;1.20;86.00;;;;;;5009575;28;20476;-82
2020/12/11 05:28:57;;;;;;;21.70;12.38;;;1.20;85.80;;;;;;4993155;28;20869;-82
2020/12/11 05:31:23;;;;;;;20.70;12.65;;;1.20;85.90;;;;;;5009780;28;20395;-83
2020/12/11 05:34:10;;;;;;;19.43;11.57;;;1.10;86.30;;;;;;5009453;28;20718;-84
2020/12/11 05:36:54;;;;;;;22.10;12.80;;;1.10;86.00;;;;;;4992925;28;20396;-81
2020/12/11 05:39:29;;;;;;;21.23;13.05;;;1.20;86.20;;;;;;5009441;28;20495;-83
2020/12/11 05:41:55;;;;;;;21.17;12.50;;;1.10;86.50;;;;;;4993047;28;20405;-83
2020/12/11 05:44:33;;;;;;;21.40;12.60;;;1.10;86.20;;;;;;4992908;28;20785;-83
2020/12/11 05:47:15;;;;;;;21.05;12.38;;;1.10;86.50;;;;;;5009039;28;20389;-84
2020/12/11 05:49:40;;;;;;;21.65;11.73;;;1.00;86.50;;;;;;4993215;28;20396;-81
2020/12/11 05:52:12;;;;;;;20.05;11.95;;;1.10;86.10;;;;;;5009175;28;20890;-82
2020/12/11 05:54:44;;;;;;;21.95;12.73;;;1.10;86.10;;;;;;5009437;28;20404;-82
2020/12/11 05:57:10;;;;;;;22.35;12.23;;;1.10;86.20;;;;;;5008886;28;20443;-86
2020/12/11 05:59:36;;;;;;;20.95;12.40;;;1.00;86.50;;;;;;4992966;28;20877;-83
2020/12/11 06:02:02;;;;;;;22.00;13.00;;;1.00;86.60;;;;;;5009162;28;20455;-82
2020/12/11 06:04:28;;;;;;;22.88;13.10;;;1.00;86.40;;;;;;5009407;28;20858;-83
2020/12/11 06:06:56;;;;;;;20.52;12.55;;;0.90;86.70;;;;;;4992325;28;20484;-84
2020/12/11 06:09:26;;;;;;;24.75;13.40;;;1.10;86.10;;;;;;5008997;28;20532;-82
2020/12/11 06:11:52;;;;;;;22.10;12.65;;;0.90;86.50;;;;;;4992763;28;20824;-82
2020/12/11 06:14:22;;;;;;;20.97;12.70;;;0.90;86.60;;;;;;4992486;28;20397;-82
2020/12/11 06:16:49;;;;;;;23.30;13.80;;;0.90;86.70;;;;;;4994520;28;20838;-82
2020/12/11 06:19:15;;;;;;;22.93;12.97;;;0.90;86.70;;;;;;4996223;28;20492;-82
2020/12/11 06:21:42;;;;;;;23.75;12.95;;;0.90;86.90;;;;;;5012804;28;20397;-82
2020/12/11 06:24:26;;;;;;;24.47;13.60;;;0.90;86.90;;;;;;4996028;28;20428;-82
2020/12/11 06:27:02;;;;;;;27.77;15.27;;;0.90;86.70;;;;;;4995806;28;20385;-83
2020/12/11 06:29:29;;;;;;;22.60;12.73;;;0.90;86.90;;;;;;4995885;28;20397;-83
2020/12/11 06:31:55;;;;;;;23.92;12.95;;;1.00;86.50;;;;;;4995791;28;20396;-82
2020/12/11 06:34:21;;;;;;;22.93;13.77;;;1.00;86.60;;;;;;4996058;28;20415;-82
2020/12/11 06:36:48;;;;;;;20.33;12.43;;;0.90;86.90;;;;;;4995412;28;20415;-83
2020/12/11 06:39:38;;;;;;;23.88;12.65;;;1.10;86.50;;;;;;4996130;28;20385;-82
2020/12/11 06:42:03;;;;;;;23.55;13.48;;;1.00;86.50;;;;;;4998039;28;20402;-82
2020/12/11 06:44:29;;;;;;;22.60;13.65;;;1.00;86.80;;;;;;4997659;28;20393;-82
2020/12/11 06:47:04;;;;;;;21.48;12.98;;;1.10;86.40;;;;;;5014382;28;20409;-82
2020/12/11 06:49:30;;;;;;;22.65;13.38;;;1.00;86.80;;;;;;4999110;28;20403;-82
2020/12/11 06:51:56;;;;;;;22.17;12.88;;;1.10;86.30;;;;;;5015150;28;20390;-83
2020/12/11 06:54:21;;;;;;;21.97;13.40;;;1.10;86.40;;;;;;5032932;28;20481;-82
2020/12/11 06:56:48;;;;;;;22.73;13.18;;;1.10;86.40;;;;;;5032590;28;20752;-82
2020/12/11 06:59:27;;;;;;;20.25;11.75;;;1.30;85.90;;;;;;4998540;28;20445;-84
2020/12/11 07:01:53;;;;;;;21.23;12.43;;;1.20;86.30;;;;;;5016421;28;20906;-82
2020/12/11 07:04:18;;;;;;;26.67;12.75;;;1.20;86.40;;;;;;5013814;28;20419;-82
2020/12/11 07:06:53;;;;;;;21.45;12.48;;;1.30;86.10;;;;;;5014457;28;20887;-82
2020/12/11 07:09:19;;;;;;;20.48;11.70;;;1.30;86.10;;;;;;5015344;28;20444;-82
2020/12/11 07:11:46;;;;;;;21.27;12.25;;;1.20;86.40;;;;;;5031523;28;20933;-82
2020/12/11 07:14:11;;;;;;;18.23;11.10;;;1.30;86.10;;;;;;5031383;28;20383;-82
2020/12/11 07:16:46;;;;;;;19.90;11.90;;;1.30;86.30;;;;;;5030722;28;20398;-81
2020/12/11 07:19:12;;;;;;;20.40;11.25;;;1.30;86.40;;;;;;5032477;28;20470;-82
2020/12/11 07:21:39;;;;;;;18.53;11.43;;;1.20;86.60;;;;;;5030884;28;20474;-82
2020/12/11 07:24:05;;;;;;;19.02;11.65;;;1.20;86.30;;;;;;5031503;28;20669;-82
2020/12/11 07:26:31;;;;;;;18.33;10.85;;;1.30;86.30;;;;;;5030694;28;20441;-82
2020/12/11 07:29:15;;;;;;;17.30;10.90;;;1.40;86.00;;;;;;5031005;28;20375;-82
2020/12/11 07:31:42;;;;;;;16.92;10.38;;;1.40;86.10;;;;;;5030844;28;20452;-82
2020/12/11 07:34:19;;;;;;;19.08;10.88;;;1.40;86.10;;;;;;5014856;28;20590;-82
2020/12/11 07:36:55;;;;;;;18.92;11.15;;;1.40;86.10;;;;;;5046751;28;20399;-81
2020/12/11 07:39:25;;;;;;;16.75;10.35;;;1.30;86.10;;;;;;5030996;28;20379;-82
2020/12/11 07:41:51;;;;;;;17.70;10.57;;;1.40;85.90;;;;;;5014339;28;20875;-82
2020/12/11 07:44:23;;;;;;;17.33;10.25;;;1.50;85.50;;;;;;5030665;28;20382;-82
2020/12/11 07:46:50;;;;;;;19.17;11.20;;;1.40;85.50;;;;;;5030810;28;20419;-82
2020/12/11 07:49:15;;;;;;;18.52;11.32;;;1.40;85.90;;;;;;5030911;28;20464;-82
2020/12/11 07:51:50;;;;;;;18.08;10.63;;;1.30;86.10;;;;;;5030716;28;20470;-82
2020/12/11 07:54:17;;;;;;;18.50;10.48;;;1.30;86.50;;;;;;5030120;28;20462;-83
2020/12/11 07:56:43;;;;;;;17.73;11.45;;;1.20;86.70;;;;;;5013598;28;20449;-81
2020/12/11 07:59:12;;;;;;;20.33;10.70;;;1.40;86.20;;;;;;5024241;28;20401;-81
2020/12/11 08:01:38;;;;;;;19.05;11.27;;;1.40;86.70;;;;;;5030686;28;20449;-83
2020/12/11 08:04:04;;;;;;;20.55;11.75;;;1.40;86.30;;;;;;5014237;28;20422;-82
2020/12/11 08:06:30;;;;;;;18.73;11.20;;;1.30;86.60;;;;;;5013689;28;20433;-83
2020/12/11 08:08:55;;;;;;;19.27;11.88;;;1.40;86.60;;;;;;5013687;28;20891;-83
2020/12/11 08:11:27;;;;;;;20.58;11.73;;;1.40;86.40;;;;;;5026839;28;20392;-83
2020/12/11 08:14:03;;;;;;;19.17;11.32;;;1.40;86.50;;;;;;5021070;28;20486;-82
2020/12/11 08:16:29;;;;;;;20.70;11.67;;;1.40;86.40;;;;;;5013473;28;20468;-81
2020/12/11 08:18:56;;;;;;;19.63;12.27;;;1.50;85.90;;;;;;5031121;28;20738;-84
2020/12/11 08:21:32;;;;;;;19.63;11.98;;;1.50;86.00;;;;;;5013861;28;20394;-83
2020/12/11 08:23:57;;;;;;;18.10;11.05;;;1.70;85.50;;;;;;4997651;28;20399;-83
2020/12/11 08:26:23;;;;;;;18.20;11.30;;;1.80;85.30;;;;;;5013740;28;20379;-82
2020/12/11 08:28:50;;;;;;;19.30;12.13;;;1.90;85.10;;;;;;5013277;28;20402;-83
2020/12/11 08:31:26;;;;;;;17.63;10.98;;;1.90;84.80;;;;;;5013747;28;20422;-83
2020/12/11 08:34:08;;;;;;;20.58;11.23;;;1.90;85.10;;;;;;5013876;28;20906;-82
2020/12/11 08:36:38;;;;;;;16.80;10.80;;;2.10;84.40;;;;;;5014218;28;20801;-80
2020/12/11 08:39:07;;;;;;;18.70;11.07;;;2.30;83.80;;;;;;5012896;28;20394;-83
2020/12/11 08:41:36;;;;;;;18.90;11.48;;;2.20;84.00;;;;;;5013654;28;20387;-82
2020/12/11 08:44:03;;;;;;;18.50;10.90;;;2.20;84.40;;;;;;4997236;28;21033;-83
2020/12/11 08:49:08;;;;;;;19.65;9.90;;;2.30;84.00;;;;;;5014124;28;20387;-82
2020/12/11 08:51:33;;;;;;;14.35;9.23;;;2.40;83.70;;;;;;5014158;28;20383;-80
2020/12/11 08:54:01;;;;;;;17.33;9.90;;;2.40;83.10;;;;;;5013153;28;20435;-82
2020/12/11 08:56:26;;;;;;;19.40;10.55;;;2.40;83.20;;;;;;5012254;28;20421;-82
2020/12/11 08:58:52;;;;;;;16.33;9.48;;;2.40;83.50;;;;;;5012738;28;20388;-81
2020/12/11 09:01:18;;;;;;;15.77;9.27;;;2.40;83.40;;;;;;4995612;28;20469;-83
2020/12/11 09:03:43;;;;;;;15.70;9.37;;;2.40;83.60;;;;;;5013093;28;20414;-82
2020/12/11 09:06:09;;;;;;;14.40;9.47;;;2.40;83.70;;;;;;5012968;28;20391;-83
2020/12/11 09:08:34;;;;;;;14.67;8.90;;;2.40;83.50;;;;;;4996162;28;20744;-83
2020/12/11 09:11:00;;;;;;;14.63;9.30;;;2.50;83.20;;;;;;5012895;28;20720;-82
2020/12/11 09:13:25;;;;;;;15.90;9.07;;;2.50;83.30;;;;;;5012969;28;20410;-83
2020/12/11 09:15:51;;;;;;;15.37;9.43;;;2.50;83.40;;;;;;5012994;28;20862;-84
2020/12/11 09:18:16;;;;;;;15.87;9.17;;;2.50;83.30;;;;;;5012434;28;20394;-84
2020/12/11 09:20:42;;;;;;;16.57;9.27;;;2.60;82.90;;;;;;5013175;28;20383;-82
2020/12/11 09:23:08;;;;;;;15.98;8.93;;;2.60;83.30;;;;;;4996445;28;20494;-83
2020/12/11 09:25:33;;;;;;;17.25;10.15;;;2.60;82.90;;;;;;5013166;28;20371;-83
2020/12/11 09:28:01;;;;;;;17.13;9.00;;;2.60;83.60;;;;;;5012214;28;20386;-81
2020/12/11 09:30:29;;;;;;;16.50;9.67;;;2.70;83.30;;;;;;5030807;28;20764;-81
2020/12/11 09:35:21;;;;;;;15.55;9.80;;;2.70;83.30;;;;;;5013175;28;20391;-82
2020/12/11 09:37:49;;;;;;;15.95;9.18;;;2.70;83.20;;;;;;5012616;28;20402;-83
2020/12/11 09:40:20;;;;;;;16.23;9.30;;;2.70;83.10;;;;;;5013764;28;20420;-84
2020/12/11 09:42:56;;;;;;;16.10;9.25;;;2.80;83.00;;;;;;5012801;28;20393;-83
2020/12/11 09:45:30;;;;;;;12.93;8.67;;;2.80;83.00;;;;;;5014360;28;20487;-84
2020/12/11 09:55:45;;;;;;;14.05;8.45;;;2.80;83.30;;;;;;5018862;28;20978;-85
2020/12/11 09:58:10;;;;;;;14.85;9.82;;;2.90;82.80;;;;;;5018076;28;20477;-83
2020/12/11 10:00:39;;;;;;;13.52;8.80;;;2.90;83.60;;;;;;5016645;28;20450;-83
2020/12/11 10:03:08;;;;;;;14.90;8.80;;;3.00;83.00;;;;;;5000632;28;20437;-81
2020/12/11 10:05:34;;;;;;;14.17;8.77;;;3.10;82.40;;;;;;5017105;28;20386;-83
2020/12/11 10:07:59;;;;;;;14.40;8.98;;;3.20;82.50;;;;;;5015952;28;20852;-85
2020/12/11 10:10:25;;;;;;;15.87;9.17;;;3.20;82.60;;;;;;5017048;28;20387;-84
2020/12/11 10:12:51;;;;;;;13.10;8.40;;;3.20;82.70;;;;;;5016511;28;20689;-82
2020/12/11 10:15:20;;;;;;;15.35;8.93;;;3.30;82.60;;;;;;5000369;28;20395;-83
2020/12/11 10:17:46;;;;;;;14.63;8.73;;;3.30;82.60;;;;;;5016443;28;20474;-84
2020/12/11 10:20:18;;;;;;;13.23;8.27;;;3.40;82.80;;;;;;5016665;28;20426;-86
2020/12/11 10:22:47;;;;;;;15.77;8.98;;;3.40;82.00;;;;;;5000854;28;20463;-84
2020/12/11 10:25:12;;;;;;;18.48;9.15;;;3.40;82.60;;;;;;5000630;28;20485;-83
2020/12/11 10:27:38;;;;;;;13.87;8.37;;;3.40;82.50;;;;;;5015816;28;20840;-84
2020/12/11 10:30:04;;;;;;;14.57;8.20;;;3.40;82.50;;;;;;5016664;28;20379;-84
2020/12/11 10:32:29;;;;;;;15.40;8.77;;;3.50;82.20;;;;;;5016256;28;20963;-84
2020/12/11 10:34:55;;;;;;;13.10;8.60;;;3.60;82.30;;;;;;5016506;28;20402;-83
2020/12/11 10:37:20;;;;;;;12.80;8.40;;;3.60;81.70;;;;;;5016091;28;20383;-83
2020/12/11 10:39:46;;;;;;;13.90;7.53;;;3.80;81.70;;;;;;4999881;28;20429;-83
2020/12/11 10:42:11;;;;;;;13.63;8.47;;;3.70;81.10;;;;;;5016339;28;20870;-83
2020/12/11 10:44:37;;;;;;;15.00;8.70;;;3.70;82.40;;;;;;5033442;28;20386;-85
2020/12/11 10:47:02;;;;;;;15.03;8.63;;;3.60;82.20;;;;;;5015760;28;20415;-83
2020/12/11 10:49:28;;;;;;;12.80;8.00;;;3.70;81.90;;;;;;5015573;28;20379;-83
2020/12/11 10:51:53;;;;;;;14.67;8.73;;;3.70;82.30;;;;;;4999451;28;20387;-84
2020/12/11 10:54:19;;;;;;;14.33;7.97;;;3.70;82.60;;;;;;5015686;28;20457;-83
2020/12/11 10:56:45;;;;;;;17.13;8.60;;;3.70;82.30;;;;;;4999197;28;20941;-84
2020/12/11 10:59:11;;;;;;;12.77;7.80;;;3.70;82.30;;;;;;4999193;28;20387;-85
2020/12/11 11:01:37;;;;;;;12.87;7.73;;;3.80;82.40;;;;;;5015288;28;20711;-84
2020/12/11 11:04:03;;;;;;;12.82;7.97;;;3.90;82.10;;;;;;4999579;28;20401;-83
2020/12/11 11:06:33;;;;;;;13.00;8.10;;;3.90;82.80;;;;;;4998199;28;20482;-83
2020/12/11 11:16:45;;;;;;;12.15;7.70;;;3.90;82.70;;;;;;5016350;28;20862;-83
2020/12/11 11:19:24;;;;;;;13.52;8.02;;;3.80;83.10;;;;;;5017047;28;20692;-83
2020/12/11 11:22:09;;;;;;;14.03;8.00;;;3.80;83.00;;;;;;5017243;28;20534;-83
2020/12/11 11:27:10;;;;;;;12.27;7.65;;;4.00;82.60;;;;;;5015575;28;20490;-83
2020/12/11 11:29:36;;;;;;;14.18;7.97;;;4.00;82.50;;;;;;5015386;28;20503;-84
2020/12/11 11:32:01;;;;;;;12.88;8.38;;;4.00;82.40;;;;;;4998537;28;20959;-84
2020/12/11 11:34:27;;;;;;;12.98;7.90;;;4.10;82.50;;;;;;5032171;28;21016;-84
2020/12/11 11:36:53;;;;;;;13.05;7.90;;;4.10;82.00;;;;;;4998234;28;20792;-84
2020/12/11 11:39:18;;;;;;;12.50;7.72;;;4.10;82.30;;;;;;5014520;28;20394;-84
2020/12/11 11:41:44;;;;;;;13.27;7.97;;;4.10;82.60;;;;;;4998136;28;20744;-82
2020/12/11 11:44:35;;;;;;;13.37;8.23;;;4.10;82.70;;;;;;5014732;28;20391;-82
2020/12/11 11:47:01;;;;;;;12.75;7.45;;;4.20;82.10;;;;;;5008636;28;20750;-82
2020/12/11 11:49:33;;;;;;;12.87;8.37;;;4.20;82.30;;;;;;5020951;28;20377;-83
2020/12/11 11:52:09;;;;;;;12.90;7.80;;;4.20;82.10;;;;;;4995604;28;20749;-81
2020/12/11 11:54:35;;;;;;;13.68;7.88;;;4.30;82.10;;;;;;5014727;28;20411;-82
2020/12/11 11:57:01;;;;;;;11.60;7.25;;;4.30;82.60;;;;;;5011399;28;20412;-83
2020/12/11 11:59:26;;;;;;;14.03;8.13;;;4.30;82.30;;;;;;4994949;28;20384;-84
2020/12/11 12:01:54;;;;;;;12.70;7.17;;;4.30;82.90;;;;;;4978183;28;20392;-82
2020/12/11 12:04:20;;;;;;;13.25;7.22;;;4.30;82.50;;;;;;5012245;28;20715;-83
2020/12/11 12:06:46;;;;;;;13.07;7.73;;;4.30;83.40;;;;;;4977943;28;20412;-82
2020/12/11 12:09:11;;;;;;;13.73;7.67;;;4.30;83.70;;;;;;4977893;28;20428;-82
2020/12/11 12:11:37;;;;;;;15.13;7.00;;;4.30;83.70;;;;;;4978503;28;20381;-83
2020/12/11 12:14:02;;;;;;;13.33;7.37;;;4.30;83.70;;;;;;4977196;28;20793;-85
2020/12/11 12:16:28;;;;;;;11.17;6.67;;;4.30;83.80;;;;;;4978307;28;20420;-82
2020/12/11 12:18:57;;;;;;;11.70;7.30;;;4.20;83.90;;;;;;4981200;28;20716;-83
2020/12/11 12:29:30;;;;;;;14.68;8.50;;;4.10;87.10;;;;;;5030416;28;20378;-83
2020/12/11 12:31:59;;;;;;;16.77;8.20;;;4.10;87.40;;;;;;5029934;28;20383;-83
2020/12/11 12:44:49;;;;;;;16.00;8.23;;;4.10;88.00;;;;;;5030456;28;20589;-83
2020/12/11 12:47:14;;;;;;;14.80;8.37;;;4.10;88.10;;;;;;5013239;28;20399;-82
2020/12/11 12:49:40;;;;;;;14.40;8.67;;;4.10;87.70;;;;;;5029713;28;20387;-82
2020/12/11 12:52:05;;;;;;;15.23;9.10;;;4.10;88.00;;;;;;5013618;28;20391;-82
2020/12/11 12:54:31;;;;;;;12.70;8.20;;;4.10;88.00;;;;;;5013195;28;20442;-82
2020/12/11 12:56:59;;;;;;;13.23;8.40;;;4.10;87.70;;;;;;5013234;28;20481;-83
2020/12/11 13:04:40;;;;;;;12.63;7.90;;;4.10;87.50;;;;;;5029841;28;20375;-82
2020/12/11 13:07:06;;;;;;;12.80;7.63;;;4.10;87.40;;;;;;5029470;28;20396;-82
2020/12/11 13:09:35;;;;;;;12.00;7.47;;;4.10;87.80;;;;;;5029396;28;20382;-82
2020/12/11 13:12:01;;;;;;;10.85;7.32;;;4.10;87.30;;;;;;5029982;28;20521;-82
2020/12/11 13:14:26;;;;;;;14.30;7.93;;;4.20;87.30;;;;;;5012665;28;20958;-82
2020/12/11 13:16:52;;;;;;;10.87;7.07;;;4.20;87.00;;;;;;5028880;28;20391;-83
2020/12/11 13:19:19;;;;;;;11.10;7.05;;;4.20;87.00;;;;;;5029546;28;20375;-83
2020/12/11 13:22:03;;;;;;;13.77;7.50;;;4.20;86.70;;;;;;5012857;28;20391;-82
2020/12/11 13:27:24;;;;;;;13.03;7.80;;;4.20;86.70;;;;;;5033090;28;21007;-81
2020/12/11 13:29:50;;;;;;;13.63;7.55;;;4.30;86.40;;;;;;5018459;28;20435;-81
2020/12/11 13:32:15;;;;;;;11.32;6.93;;;4.20;86.60;;;;;;5016525;28;20458;-82